Time;durP1;ratioP1;P1;durP2;ratioP2;P2;SDS_P1;SDS_P2;PMS_P1;PMS_P2;Temp;Humidity;BMP_temperature;BMP_pressure;BME280_temperature;BME280_humidity;BME280_pressure;Samples;Min_cycle;Max_cycle;Signal;HPM_P1;HPM_P2
2021/09/04 00:00:19;;;;;;;9.75;6.80;;;;;;;11.10;84.68;96381.34;6309062;22;20030;-93
2021/09/04 00:02:45;;;;;;;11.27;7.13;;;;;;;11.28;84.33;96403.75;6309172;22;20090;-93
2021/09/04 00:05:11;;;;;;;15.80;6.80;;;;;;;11.26;84.56;96400.75;6309007;22;20007;-95
2021/09/04 00:07:37;;;;;;;11.73;6.30;;;;;;;11.34;84.08;96417.47;6308999;22;20007;-95
2021/09/04 00:10:03;;;;;;;9.73;5.97;;;;;;;11.20;84.28;96396.41;6335146;22;20011;-95
2021/09/04 00:12:28;;;;;;;9.27;6.47;;;;;;;11.32;83.68;96425.34;6308392;22;20006;-94
2021/09/04 00:14:55;;;;;;;9.45;6.35;;;;;;;11.16;83.81;96395.81;6307950;22;20427;-94
2021/09/04 00:17:21;;;;;;;9.90;6.60;;;;;;;11.24;83.89;96419.50;6309007;22;20374;-95
2021/09/04 00:19:47;;;;;;;10.10;6.22;;;;;;;11.26;84.62;96413.59;6308939;22;20501;-94
2021/09/04 00:22:13;;;;;;;8.18;5.65;;;;;;;11.20;84.08;96413.47;6308844;22;20003;-95
2021/09/04 00:24:38;;;;;;;12.20;7.30;;;;;;;10.96;84.35;96391.66;6308848;22;20014;-95
2021/09/04 00:27:06;;;;;;;11.90;6.90;;;;;;;10.94;84.86;96387.91;6309301;22;20007;-95
2021/09/04 00:29:32;;;;;;;9.68;6.13;;;;;;;11.15;84.98;96407.91;6308792;22;20019;-95
2021/09/04 00:31:58;;;;;;;12.60;6.55;;;;;;;11.04;85.64;96386.66;6308886;22;20014;-93
2021/09/04 00:34:24;;;;;;;10.23;7.10;;;;;;;11.02;84.82;96380.91;6309206;22;20007;-95
2021/09/04 00:36:49;;;;;;;13.73;6.95;;;;;;;11.08;84.13;96384.53;6308669;22;20011;-94
2021/09/04 00:39:15;;;;;;;9.57;6.93;;;;;;;11.05;84.10;96380.00;6308851;22;20454;-94
2021/09/04 00:41:40;;;;;;;9.82;7.25;;;;;;;11.13;84.22;96399.44;6308851;22;20003;-95
2021/09/04 00:44:06;;;;;;;11.27;7.65;;;;;;;10.98;84.72;96377.63;6308556;22;20046;-94
2021/09/04 00:46:32;;;;;;;7.88;6.32;;;;;;;11.09;84.29;96399.63;6308911;22;20381;-94
2021/09/04 00:48:59;;;;;;;16.73;7.10;;;;;;;11.00;84.45;96386.81;6308582;22;20007;-94
2021/09/04 00:51:24;;;;;;;13.10;6.45;;;;;;;10.91;84.24;96384.13;6308635;22;20003;-95
2021/09/04 00:53:51;;;;;;;9.13;6.45;;;;;;;11.06;83.80;96416.09;6308592;22;20003;-93
2021/09/04 00:56:17;;;;;;;11.10;6.45;;;;;;;10.90;83.31;96388.06;6308586;22;20022;-93
2021/09/04 00:58:43;;;;;;;8.05;6.25;;;;;;;10.90;84.62;96398.19;6308149;22;20419;-94
2021/09/04 01:01:09;;;;;;;11.05;6.03;;;;;;;10.78;84.88;96380.88;6308584;22;20014;-94
2021/09/04 01:03:35;;;;;;;8.60;6.30;;;;;;;10.89;84.82;96389.28;6308296;22;20038;-94
2021/09/04 01:06:01;;;;;;;7.22;6.32;;;;;;;10.77;84.68;96370.47;6309004;22;20061;-96
2021/09/04 01:08:26;;;;;;;8.82;6.22;;;;;;;10.94;84.56;96398.78;6308354;22;20007;-94
2021/09/04 01:10:53;;;;;;;11.20;5.45;;;;;;;11.05;84.14;96422.72;6308560;22;20300;-94
2021/09/04 01:13:20;;;;;;;8.25;5.88;;;;;;;10.92;84.54;96396.53;6308523;22;20010;-94
2021/09/04 01:15:46;;;;;;;9.20;6.03;;;;;;;10.89;84.71;96402.84;6308425;22;20423;-96
2021/09/04 01:18:12;;;;;;;9.15;6.43;;;;;;;11.06;85.27;96419.56;6308349;22;20028;-94
2021/09/04 01:20:38;;;;;;;9.75;6.82;;;;;;;10.83;84.88;96398.50;6308139;22;20427;-94
2021/09/04 01:23:04;;;;;;;8.80;6.28;;;;;;;10.91;84.69;96403.13;6308397;22;20012;-95
2021/09/04 01:25:31;;;;;;;8.98;7.00;;;;;;;10.95;84.07;96411.13;6308571;22;20007;-94
2021/09/04 01:28:02;;;;;;;8.02;6.43;;;;;;;10.96;84.71;96418.06;6308512;22;20014;-94
2021/09/04 01:30:28;;;;;;;8.55;6.60;;;;;;;10.79;84.66;96397.91;6308348;22;20023;-94
2021/09/04 01:32:54;;;;;;;11.65;7.47;;;;;;;10.77;84.71;96406.53;6308056;22;20428;-94
2021/09/04 01:35:21;;;;;;;8.70;6.72;;;;;;;10.62;84.06;96384.69;6308276;22;20045;-95
2021/09/04 01:37:47;;;;;;;9.23;6.80;;;;;;;10.71;83.75;96411.81;6308222;22;19999;-94
2021/09/04 01:40:15;;;;;;;8.82;6.70;;;;;;;10.79;84.25;96425.84;6308372;22;19995;-94
2021/09/04 01:42:41;;;;;;;13.10;6.70;;;;;;;10.58;84.33;96386.03;6307649;22;20011;-93
2021/09/04 01:45:08;;;;;;;9.52;6.82;;;;;;;10.66;84.40;96401.56;6308369;22;20082;-94
2021/09/04 01:47:34;;;;;;;10.02;6.30;;;;;;;10.69;84.44;96405.34;6308117;22;20003;-96
2021/09/04 01:50:00;;;;;;;9.43;6.65;;;;;;;10.57;84.54;96384.53;6308096;22;20042;-95
2021/09/04 01:52:25;;;;;;;8.93;6.63;;;;;;;10.46;84.00;96368.72;6308437;22;20408;-94
2021/09/04 01:54:52;;;;;;;9.43;6.20;;;;;;;10.36;84.64;96375.38;6308250;22;20083;-94
2021/09/04 01:57:18;;;;;;;10.95;6.28;;;;;;;10.62;84.15;96406.41;6308053;22;20007;-95
2021/09/04 01:59:45;;;;;;;13.98;6.80;;;;;;;10.46;85.49;96388.50;6308291;22;20003;-95
2021/09/04 02:02:10;;;;;;;11.75;6.15;;;;;;;10.27;84.63;96375.38;6308196;22;20003;-95
2021/09/04 02:04:36;;;;;;;10.40;6.28;;;;;;;10.48;85.29;96402.34;6307740;22;20014;-94
2021/09/04 02:07:03;;;;;;;11.60;6.40;;;;;;;10.23;84.99;96361.97;6307855;22;20018;-95
2021/09/04 02:09:28;;;;;;;10.18;5.95;;;;;;;10.23;85.48;96361.97;6308026;22;20026;-94
2021/09/04 02:11:54;;;;;;;8.20;6.03;;;;;;;10.38;85.89;96383.81;6308036;22;20082;-96
2021/09/04 02:14:20;;;;;;;12.23;6.40;;;;;;;10.17;84.54;96369.97;6307995;22;20007;-94
2021/09/04 02:16:45;;;;;;;8.13;5.85;;;;;;;10.28;85.30;96374.19;6307970;22;20003;-95
2021/09/04 02:19:11;;;;;;;9.00;6.13;;;;;;;10.34;85.33;96385.97;6307812;22;20003;-95
2021/09/04 02:21:36;;;;;;;8.32;6.35;;;;;;;10.30;85.64;96385.34;6307761;22;20008;-94
2021/09/04 02:24:03;;;;;;;12.73;6.13;;;;;;;10.45;85.01;96402.53;6308054;22;20007;-94
2021/09/04 02:26:28;;;;;;;8.00;6.22;;;;;;;10.25;85.13;96378.56;6307794;22;20006;-94
2021/09/04 02:28:55;;;;;;;10.70;5.97;;;;;;;10.30;85.21;96386.09;6307472;22;20019;-94
2021/09/04 02:31:24;;;;;;;7.45;6.15;;;;;;;10.23;85.33;96379.03;6307845;22;20479;-95
2021/09/04 02:33:54;;;;;;;9.18;6.10;;;;;;;10.18;85.80;96365.28;6307320;22;20007;-94
2021/09/04 02:36:20;;;;;;;11.50;5.55;;;;;;;10.17;86.42;96366.47;6307497;22;20041;-94
2021/09/04 02:38:46;;;;;;;12.07;6.50;;;;;;;10.30;86.66;96375.25;6307702;22;20030;-94
2021/09/04 02:41:12;;;;;;;11.50;6.13;;;;;;;10.13;87.22;96347.66;6307491;22;20393;-94
2021/09/04 02:43:38;;;;;;;8.93;6.65;;;;;;;10.31;86.83;96357.75;6307547;22;20053;-96
2021/09/04 02:46:04;;;;;;;8.85;6.32;;;;;;;10.32;86.48;96363.91;6307668;22;20003;-94
2021/09/04 02:48:49;;;;;;;8.52;6.13;;;;;;;10.51;86.26;96395.28;6307282;22;20038;-93
2021/09/04 02:51:15;;;;;;;10.23;6.15;;;;;;;10.29;86.18;96365.59;6307732;22;20003;-94
2021/09/04 02:53:41;;;;;;;9.63;5.60;;;;;;;10.21;86.73;96354.25;6307578;22;20003;-93
2021/09/04 02:56:06;;;;;;;9.70;6.53;;;;;;;10.38;86.50;96371.00;6307533;22;20003;-93
2021/09/04 02:58:32;;;;;;;9.60;5.90;;;;;;;10.41;87.16;96369.34;6307637;22;20014;-94
2021/09/04 03:00:59;;;;;;;9.32;6.15;;;;;;;10.39;86.72;96364.38;6307335;22;20086;-94
2021/09/04 03:03:25;;;;;;;10.35;6.32;;;;;;;10.51;86.82;96383.66;6307243;22;20011;-95
2021/09/04 03:05:51;;;;;;;20.02;6.32;;;;;;;10.41;87.91;96374.78;6307675;22;20052;-93
2021/09/04 03:08:16;;;;;;;7.78;5.32;;;;;;;10.40;87.41;96360.44;6308744;22;20305;-94
2021/09/04 03:10:42;;;;;;;10.25;6.00;;;;;;;10.53;86.76;96373.09;6307338;22;20010;-95
2021/09/04 03:13:07;;;;;;;8.18;5.82;;;;;;;10.51;87.34;96362.69;6307570;22;20007;-95
2021/09/04 03:15:33;;;;;;;8.38;5.90;;;;;;;10.30;86.69;96331.81;6307539;22;20011;-94
2021/09/04 03:17:59;;;;;;;8.73;6.28;;;;;;;10.45;86.50;96343.53;6307566;22;20086;-95
2021/09/04 03:20:24;;;;;;;9.20;6.00;;;;;;;10.47;86.50;96351.97;6307572;22;20000;-94
2021/09/04 03:22:50;;;;;;;9.80;6.25;;;;;;;10.47;86.19;96345.78;6309564;22;20370;-95
2021/09/04 03:25:16;;;;;;;12.77;6.07;;;;;;;10.33;86.30;96317.31;6309639;22;20007;-94
2021/09/04 03:27:41;;;;;;;12.18;6.68;;;;;;;10.47;86.59;96346.53;6309548;22;20375;-96
2021/09/04 03:30:09;;;;;;;11.02;6.35;;;;;;;10.55;86.60;96354.38;6309406;22;20343;-94
2021/09/04 03:32:35;;;;;;;15.82;6.80;;;;;;;10.73;87.34;96373.34;6309413;22;20003;-94
2021/09/04 03:35:00;;;;;;;9.98;6.55;;;;;;;10.64;87.12;96354.34;6309437;22;20003;-94
2021/09/04 03:37:26;;;;;;;13.40;7.07;;;;;;;10.66;87.17;96360.84;6309647;22;20056;-95
2021/09/04 03:39:51;;;;;;;10.55;6.47;;;;;;;10.68;86.25;96365.81;6309469;22;20037;-94
2021/09/04 03:42:17;;;;;;;7.25;5.55;;;;;;;10.63;85.68;96359.03;6309368;22;20004;-95
2021/09/04 03:44:43;;;;;;;6.57;5.55;;;;;;;10.48;85.33;96344.56;6309359;22;20006;-95
2021/09/04 03:47:08;;;;;;;9.63;6.47;;;;;;;10.42;85.79;96347.16;6309266;22;20030;-95
2021/09/04 03:49:34;;;;;;;9.30;6.28;;;;;;;10.59;85.96;96366.56;6309326;22;20458;-93
2021/09/04 03:52:00;;;;;;;12.02;6.18;;;;;;;10.58;85.46;96369.75;6309322;22;19995;-96
2021/09/04 03:54:25;;;;;;;7.35;5.25;;;;;;;10.58;85.00;96369.75;6309449;22;20073;-95
2021/09/04 03:56:53;;;;;;;7.90;5.80;;;;;;;10.51;84.35;96370.84;6309280;22;20015;-94
2021/09/04 03:59:19;;;;;;;10.05;8.10;;;;;;;10.59;85.12;96396.44;6309183;22;20009;-95
2021/09/04 04:01:45;;;;;;;9.77;8.10;;;;;;;10.47;85.11;96383.81;6308884;22;20493;-93
2021/09/04 04:04:11;;;;;;;10.32;7.70;;;;;;;10.49;85.43;96368.59;6308841;22;20003;-94
2021/09/04 04:06:36;;;;;;;8.65;6.18;;;;;;;10.60;85.07;96395.25;6309100;22;20011;-94
2021/09/04 04:09:02;;;;;;;7.38;5.80;;;;;;;10.47;85.10;96370.97;6309179;22;20014;-94
2021/09/04 04:11:27;;;;;;;8.48;5.90;;;;;;;10.34;85.44;96354.13;6308931;22;20049;-95
2021/09/04 04:13:53;;;;;;;8.93;5.80;;;;;;;10.39;84.86;96358.19;6308974;22;20074;-94
2021/09/04 04:16:19;;;;;;;7.05;5.35;;;;;;;10.67;84.68;96394.19;6308971;22;20754;-95
2021/09/04 04:18:44;;;;;;;7.45;5.43;;;;;;;10.66;85.81;96395.41;6334960;22;20088;-94
2021/09/04 04:21:10;;;;;;;10.32;5.78;;;;;;;10.56;85.55;96378.38;6309208;22;20380;-94
2021/09/04 04:23:36;;;;;;;8.07;5.32;;;;;;;10.48;86.37;96356.19;6309032;22;20007;-95
2021/09/04 04:26:01;;;;;;;9.93;6.43;;;;;;;10.57;84.68;96370.97;6308842;22;20332;-93
2021/09/04 04:28:27;;;;;;;8.52;6.65;;;;;;;10.43;85.33;96348.66;6304604;22;20003;-95
2021/09/04 04:30:53;;;;;;;12.10;7.20;;;;;;;10.72;85.94;96399.00;6252440;22;20010;-96
2021/09/04 04:33:19;;;;;;;13.60;8.55;;;;;;;10.48;85.66;96356.19;6252283;22;20376;-94
2021/09/04 04:35:44;;;;;;;14.70;8.20;;;;;;;10.66;84.76;96373.66;6252328;22;20008;-94
2021/09/04 04:38:10;;;;;;;12.85;8.30;;;;;;;10.62;84.80;96364.91;6252324;22;20056;-94
2021/09/04 04:40:37;;;;;;;10.68;7.70;;;;;;;10.63;85.94;96393.56;6251445;22;20086;-94
2021/09/04 04:43:03;;;;;;;11.82;7.45;;;;;;;10.54;85.44;96367.19;6252228;22;20008;-95
2021/09/04 04:45:28;;;;;;;12.60;8.00;;;;;;;10.59;86.48;96369.28;6251743;22;20003;-95
2021/09/04 04:47:54;;;;;;;9.88;7.65;;;;;;;10.56;85.17;96372.19;6252265;22;20035;-94
2021/09/04 04:50:20;;;;;;;10.60;7.80;;;;;;;10.42;84.27;96362.69;6252436;22;20014;-94
2021/09/04 04:52:46;;;;;;;11.70;7.72;;;;;;;10.80;84.42;96400.16;6252115;22;20007;-93
2021/09/04 04:55:13;;;;;;;13.85;7.57;;;;;;;10.62;85.24;96381.22;6252185;22;20008;-94
2021/09/04 04:57:39;;;;;;;10.63;7.78;;;;;;;10.68;84.94;96391.00;6252141;22;20752;-93
2021/09/04 05:00:06;;;;;;;12.05;7.40;;;;;;;10.52;85.04;96361.47;6252078;22;20007;-96
2021/09/04 05:02:31;;;;;;;12.50;7.38;;;;;;;10.84;85.50;96400.75;6252068;22;20012;-95
2021/09/04 05:04:57;;;;;;;13.60;8.00;;;;;;;10.58;85.61;96367.03;6252160;22;20031;-94
2021/09/04 05:07:23;;;;;;;11.60;7.25;;;;;;;10.64;86.38;96367.91;6252062;22;20398;-95
2021/09/04 05:09:49;;;;;;;10.52;7.40;;;;;;;10.87;86.23;96408.00;6252211;22;20014;-94
2021/09/04 05:12:14;;;;;;;13.27;6.85;;;;;;;10.87;85.40;96404.53;6251729;22;20011;-96
2021/09/04 05:14:40;;;;;;;13.18;6.70;;;;;;;10.50;84.56;96358.47;6251967;22;20045;-95
2021/09/04 05:17:05;;;;;;;13.85;6.90;;;;;;;10.66;85.50;96379.09;6251921;22;20003;-94
2021/09/04 05:19:31;;;;;;;10.85;7.30;;;;;;;10.75;85.02;96371.66;6252103;22;20375;-95
2021/09/04 05:21:58;;;;;;;11.73;7.47;;;;;;;10.88;86.48;96382.34;6250979;22;20004;-94
2021/09/04 05:24:23;;;;;;;12.05;8.10;;;;;;;10.92;85.36;96379.44;6250942;22;20010;-94
2021/09/04 05:26:49;;;;;;;16.77;8.40;;;;;;;10.86;85.30;96382.03;6251629;22;19999;-94
2021/09/04 05:29:15;;;;;;;16.85;9.50;;;;;;;10.83;85.68;96371.34;6277453;22;20094;-94
2021/09/04 05:31:41;;;;;;;15.13;8.85;;;;;;;11.02;85.25;96400.72;6308625;22;20082;-95
2021/09/04 05:34:06;;;;;;;21.13;10.50;;;;;;;10.84;85.85;96370.88;6309855;22;20449;-94
2021/09/04 05:36:32;;;;;;;17.98;9.57;;;;;;;10.93;85.90;96375.53;6308166;22;20009;-93
2021/09/04 05:38:58;;;;;;;17.33;9.95;;;;;;;10.84;86.08;96370.88;6308180;22;20042;-94
2021/09/04 05:41:24;;;;;;;13.88;9.20;;;;;;;10.80;85.12;96364.09;6308111;22;20003;-94
2021/09/04 05:43:50;;;;;;;16.60;8.57;;;;;;;10.87;85.29;96367.25;6309432;22;20012;-96
2021/09/04 05:46:15;;;;;;;15.85;9.05;;;;;;;10.98;84.54;96381.09;6308100;22;20003;-94
2021/09/04 05:48:41;;;;;;;13.85;9.02;;;;;;;10.91;84.61;96367.06;6308643;22;20384;-95
2021/09/04 05:51:07;;;;;;;19.50;10.57;;;;;;;11.03;85.15;96368.84;6307828;22;20378;-94
2021/09/04 05:53:33;;;;;;;14.77;9.43;;;;;;;11.03;84.85;96382.44;6307862;22;20003;-94
2021/09/04 05:55:58;;;;;;;22.35;10.95;;;;;;;10.95;85.86;96379.28;6308221;22;20003;-95
2021/09/04 05:58:29;;;;;;;18.98;10.55;;;;;;;11.02;86.58;96392.56;6307627;22;19999;-94
2021/09/04 06:00:54;;;;;;;;;;;;;;;11.02;86.95;96408.09;6308446;22;20071;-93
2021/09/04 06:03:19;;;;;;;18.27;9.88;;;;;;;10.95;86.91;96382.00;6307601;22;19934;-96
2021/09/04 06:05:45;;;;;;;14.50;9.27;;;;;;;11.11;86.86;96402.63;6307982;22;20007;-94
2021/09/04 06:08:48;;;;;;;17.05;10.90;;;;;;;11.28;87.01;96400.28;6307886;22;20025;-94
2021/09/04 06:11:14;;;;;;;15.77;9.90;;;;;;;11.19;86.29;96371.19;6307818;22;20007;-94
2021/09/04 06:13:39;;;;;;;20.48;11.85;;;;;;;11.13;86.32;96373.03;6307464;22;20006;-94
2021/09/04 06:16:05;;;;;;;22.83;11.95;;;;;;;11.14;87.43;96384.66;6307296;22;20090;-95
2021/09/04 06:18:31;;;;;;;19.40;11.80;;;;;;;11.23;86.59;96395.47;6307641;22;20462;-94
2021/09/04 06:20:56;;;;;;;21.08;11.80;;;;;;;11.31;86.67;96393.94;6307639;22;20439;-94
2021/09/04 06:23:22;;;;;;;23.00;12.18;;;;;;;11.31;86.77;96383.06;6307558;22;20324;-95
2021/09/04 06:25:48;;;;;;;19.10;12.65;;;;;;;11.40;87.53;96384.94;6307600;22;20423;-94
2021/09/04 06:28:13;;;;;;;19.88;12.38;;;;;;;11.37;86.12;96380.44;6306454;22;20431;-95
2021/09/04 06:30:38;;;;;;;20.08;12.18;;;;;;;11.51;86.82;96391.41;6251559;22;20088;-93
2021/09/04 06:33:04;;;;;;;22.77;12.38;;;;;;;11.53;87.23;96402.56;6250827;22;20006;-94
2021/09/04 06:35:29;;;;;;;21.20;12.13;;;;;;;11.50;86.95;96381.75;6251181;22;20098;-95
2021/09/04 06:37:55;;;;;;;17.88;12.27;;;;;;;11.57;85.95;96394.25;6250770;22;20007;-96
2021/09/04 06:40:21;;;;;;;19.10;12.73;;;;;;;11.66;86.18;96412.44;6250861;22;20030;-94
2021/09/04 06:42:46;;;;;;;21.70;13.35;;;;;;;11.62;86.58;96371.09;6250308;22;20344;-94
2021/09/04 06:45:12;;;;;;;20.92;13.48;;;;;;;11.77;87.33;96391.69;6250951;22;20073;-95
2021/09/04 06:47:37;;;;;;;19.55;12.95;;;;;;;11.91;87.29;96401.13;6251032;22;20014;-93
2021/09/04 06:50:04;;;;;;;20.60;14.45;;;;;;;11.87;88.02;96386.19;6250787;22;20007;-95
2021/09/04 06:52:30;;;;;;;21.88;14.20;;;;;;;11.76;88.12;96382.00;6251002;22;20000;-95
2021/09/04 06:54:55;;;;;;;20.63;14.77;;;;;;;11.89;88.48;96392.69;6250761;22;20011;-94
2021/09/04 06:57:21;;;;;;;20.27;13.70;;;;;;;11.93;87.47;96378.88;6250587;22;20052;-94
2021/09/04 06:59:47;;;;;;;20.58;13.15;;;;;;;12.03;88.08;96388.47;6250980;22;20007;-94
2021/09/04 07:02:12;;;;;;;18.05;14.18;;;;;;;12.02;88.23;96378.81;6250964;22;20043;-95
2021/09/04 07:04:38;;;;;;;18.77;14.57;;;;;;;11.89;88.77;96367.44;6251208;22;20298;-95
2021/09/04 07:07:04;;;;;;;20.73;14.60;;;;;;;11.91;88.11;96386.78;6250717;22;20017;-94
2021/09/04 07:09:31;;;;;;;21.33;14.52;;;;;;;12.01;87.85;96382.75;6250020;22;20071;-95
2021/09/04 07:11:56;;;;;;;17.83;13.63;;;;;;;12.05;87.22;96383.34;6249044;22;20007;-93
2021/09/04 07:14:22;;;;;;;17.98;13.75;;;;;;;12.25;87.04;96388.91;6249176;22;20014;-93
2021/09/04 07:16:48;;;;;;;17.50;14.13;;;;;;;12.24;86.46;96389.38;6249118;22;19999;-95
2021/09/04 07:19:13;;;;;;;16.58;13.68;;;;;;;12.17;87.05;96385.03;6250887;22;20007;-95
2021/09/04 07:21:39;;;;;;;18.77;14.40;;;;;;;12.20;87.58;96386.09;6250881;22;20006;-94
2021/09/04 07:24:05;;;;;;;20.50;13.60;;;;;;;12.30;87.47;96393.72;6250629;22;20091;-94
2021/09/04 07:26:32;;;;;;;21.20;15.75;;;;;;;12.37;87.77;96400.75;6250892;22;20029;-95
2021/09/04 07:28:57;;;;;;;37.38;23.25;;;;;;;12.23;87.65;96376.97;6265406;22;20016;-94
2021/09/04 07:31:23;;;;;;;32.40;22.25;;;;;;;12.42;87.55;96385.75;6307232;22;20003;-94
2021/09/04 07:33:49;;;;;;;29.15;18.90;;;;;;;12.61;87.03;96400.66;6307315;22;20438;-94
2021/09/04 07:36:14;;;;;;;27.73;17.35;;;;;;;12.63;86.85;96390.06;6307159;22;20010;-95
2021/09/04 07:38:40;;;;;;;22.30;16.40;;;;;;;12.64;86.15;96402.47;6307457;22;20014;-94
2021/09/04 07:41:06;;;;;;;21.08;16.25;;;;;;;12.65;86.38;96395.78;6307096;22;20037;-94
2021/09/04 07:43:31;;;;;;;46.97;38.50;;;;;;;12.64;86.47;96388.84;6307206;22;20438;-93
2021/09/04 07:45:57;;;;;;;30.45;25.10;;;;;;;12.52;85.93;96387.91;6307442;22;20078;-93
2021/09/04 07:48:25;;;;;;;40.47;29.48;;;;;;;12.66;86.59;96393.81;6307318;22;20018;-96
2021/09/04 07:50:51;;;;;;;50.20;35.35;;;;;;;12.69;86.46;96382.72;6307120;22;19999;-94
2021/09/04 07:53:16;;;;;;;43.35;32.92;;;;;;;12.85;86.73;96376.06;6307221;22;20454;-94
2021/09/04 07:55:42;;;;;;;38.83;32.40;;;;;;;12.84;85.15;96383.47;6306978;22;20007;-93
2021/09/04 07:58:08;;;;;;;47.47;38.08;;;;;;;12.82;85.72;96377.72;6307181;22;20022;-94
2021/09/04 08:00:33;;;;;;;39.08;32.10;;;;;;;12.83;85.53;96379.22;6306942;22;20011;-94
2021/09/04 08:02:59;;;;;;;48.08;39.72;;;;;;;12.94;85.37;96381.38;6307344;22;20003;-94
2021/09/04 08:05:24;;;;;;;57.15;46.47;;;;;;;12.96;85.65;96373.50;6307344;22;20511;-94
2021/09/04 08:07:50;;;;;;;60.63;48.85;;;;;;;12.97;85.47;96388.63;6308500;22;20011;-93
2021/09/04 08:10:15;;;;;;;65.40;52.22;;;;;;;12.98;83.81;96387.38;6309097;22;20046;-94
2021/09/04 08:12:41;;;;;;;66.93;52.33;;;;;;;13.00;84.82;96387.69;6308764;22;20004;-93
2021/09/04 08:15:08;;;;;;;59.65;47.55;;;;;;;13.10;84.96;96369.22;6309154;22;20038;-93
2021/09/04 08:20:55;;;;;;;55.33;45.10;;;;;;;13.33;84.08;96390.16;6310331;22;20014;-94
2021/09/04 08:23:21;;;;;;;60.25;48.85;;;;;;;13.46;84.33;96383.63;6308800;22;20003;-94
2021/09/04 08:25:47;;;;;;;70.25;58.13;;;;;;;13.43;84.46;96382.63;6308842;22;20003;-94
2021/09/04 08:28:12;;;;;;;71.68;59.35;;;;;;;13.46;84.02;96373.47;6308129;22;20069;-94
2021/09/04 08:30:39;;;;;;;66.07;55.53;;;;;;;13.38;84.31;96390.72;6252301;22;20047;-94
2021/09/04 08:33:05;;;;;;;67.90;60.33;;;;;;;13.57;84.01;96398.16;6252415;22;20015;-94
2021/09/04 08:35:31;;;;;;;70.07;60.92;;;;;;;13.63;84.86;96382.66;6252322;22;20053;-92
2021/09/04 08:37:57;;;;;;;64.15;57.15;;;;;;;13.55;84.15;96383.50;6252280;22;20007;-93
2021/09/04 08:40:23;;;;;;;63.55;56.45;;;;;;;13.66;84.32;96372.00;6226622;22;20454;-95
2021/09/04 08:42:49;;;;;;;54.95;48.53;;;;;;;13.72;83.70;96370.06;6251696;22;20004;-94
2021/09/04 08:45:15;;;;;;;57.70;48.58;;;;;;;13.98;83.75;96389.25;6252253;22;20003;-94
2021/09/04 08:47:42;;;;;;;54.78;48.80;;;;;;;13.92;85.29;96372.06;6252171;22;20077;-94
2021/09/04 08:50:07;;;;;;;41.67;37.15;;;;;;;13.96;83.61;96358.94;6278951;22;20066;-94
2021/09/04 08:52:34;;;;;;;38.65;34.65;;;;;;;14.10;83.76;96363.56;6251997;22;20381;-93
2021/09/04 08:55:00;;;;;;;37.40;33.47;;;;;;;13.94;83.86;96359.41;6252161;22;20008;-94
2021/09/04 08:57:25;;;;;;;36.30;32.50;;;;;;;14.11;84.16;96354.91;6252386;22;20478;-94
2021/09/04 08:59:51;;;;;;;36.25;32.53;;;;;;;14.36;83.32;96360.84;6251696;22;20061;-93
2021/09/04 09:02:19;;;;;;;35.78;31.38;;;;;;;14.52;82.75;96370.47;6278645;22;20077;-94
2021/09/04 09:05:07;;;;;;;29.75;26.83;;;;;;;14.67;82.74;96371.09;6252104;22;20083;-93
2021/09/04 09:07:41;;;;;;;31.67;28.45;;;;;;;14.84;82.38;96373.97;6251691;22;20007;-93
2021/09/04 09:10:21;;;;;;;30.60;27.30;;;;;;;14.82;82.07;96351.84;6251818;22;20003;-93
2021/09/04 09:12:47;;;;;;;30.30;27.15;;;;;;;14.99;81.38;96355.44;6252221;22;20008;-94
2021/09/04 09:15:21;;;;;;;27.08;24.27;;;;;;;15.11;80.59;96354.25;6252122;22;20644;-93
2021/09/04 09:18:06;;;;;;;28.10;24.85;;;;;;;15.30;80.50;96362.84;6251757;22;20021;-91
2021/09/04 09:20:32;;;;;;;25.08;22.30;;;;;;;15.35;79.59;96366.84;6251651;22;20007;-93
2021/09/04 09:23:08;;;;;;;24.02;20.35;;;;;;;15.43;78.61;96351.47;6251738;22;20003;-92
2021/09/04 09:25:35;;;;;;;24.95;22.25;;;;;;;15.59;77.80;96355.53;6251884;22;20007;-93
2021/09/04 09:28:20;;;;;;;22.65;20.35;;;;;;;15.72;78.71;96355.88;6251644;22;20003;-93
2021/09/04 09:30:56;;;;;;;22.77;20.38;;;;;;;15.76;77.17;96345.41;6251675;22;20026;-93
2021/09/04 09:33:23;;;;;;;23.30;20.65;;;;;;;15.97;78.17;96357.69;6251779;22;20012;-92
2021/09/04 09:35:53;;;;;;;24.80;21.85;;;;;;;15.97;77.36;96335.78;6251550;22;20094;-93
2021/09/04 09:38:21;;;;;;;;;;;;;;;16.19;77.09;96350.75;6251682;22;20442;-94
2021/09/04 09:40:47;;;;;;;24.95;19.35;;;;;;;16.15;75.94;96326.38;6251501;22;19906;-92
2021/09/04 09:43:24;;;;;;;21.65;17.77;;;;;;;16.40;75.63;96349.31;6278618;22;20032;-93
2021/09/04 09:45:51;;;;;;;17.70;15.80;;;;;;;16.46;75.01;96339.13;6251603;22;20004;-92
2021/09/04 09:48:25;;;;;;;14.35;12.80;;;;;;;16.43;73.90;96322.91;6251599;22;19999;-92
2021/09/04 09:50:53;;;;;;;14.32;10.85;;;;;;;16.56;72.99;96319.69;6251534;22;20049;-92
2021/09/04 09:53:20;;;;;;;13.05;10.77;;;;;;;16.75;72.56;96328.94;6251152;22;20065;-92
2021/09/04 09:55:48;;;;;;;11.77;10.23;;;;;;;16.85;73.17;96329.44;6278196;22;20003;-93
2021/09/04 09:58:15;;;;;;;10.18;8.88;;;;;;;16.87;72.58;96305.72;6251380;22;20454;-92
2021/09/04 10:00:41;;;;;;;11.15;9.25;;;;;;;16.90;72.90;96299.25;6251367;22;20035;-92
2021/09/04 10:03:09;;;;;;;8.95;7.43;;;;;;;17.14;70.06;96314.41;6251469;22;20428;-92
2021/09/04 10:05:35;;;;;;;10.60;8.13;;;;;;;17.17;71.40;96310.69;6251322;22;20000;-92
2021/09/04 10:08:25;;;;;;;8.13;6.63;;;;;;;17.28;68.69;96319.63;6251278;22;20332;-91
2021/09/04 10:10:52;;;;;;;8.48;7.05;;;;;;;17.28;68.26;96308.66;6209335;22;20007;-92
2021/09/04 10:13:18;;;;;;;11.05;6.38;;;;;;;17.31;68.71;96300.66;6278126;22;20000;-92
2021/09/04 10:15:48;;;;;;;8.57;6.28;;;;;;;17.39;63.18;96288.66;6251062;22;20018;-92
2021/09/04 10:18:15;;;;;;;6.78;5.82;;;;;;;17.50;65.39;96296.09;6251200;22;20344;-91
2021/09/04 10:20:40;;;;;;;7.93;5.95;;;;;;;17.62;62.95;96303.03;6250824;22;20010;-92
2021/09/04 10:23:34;;;;;;;6.70;5.15;;;;;;;17.81;62.58;96306.00;6250977;22;20726;-91
2021/09/04 10:26:28;;;;;;;7.13;5.47;;;;;;;17.92;64.27;96303.19;6251241;22;20026;-92
2021/09/04 10:29:15;;;;;;;7.55;5.72;;;;;;;18.12;60.19;96302.06;6264196;22;20050;-93
2021/09/04 10:31:53;;;;;;;6.43;5.80;;;;;;;18.21;59.72;96303.75;6307526;22;20007;-91
2021/09/04 10:34:26;;;;;;;6.95;5.85;;;;;;;18.29;58.54;96299.97;6308959;22;20003;-92
2021/09/04 10:37:06;;;;;;;6.43;5.10;;;;;;;18.46;58.52;96290.84;6308378;22;20415;-91
2021/09/04 10:39:51;;;;;;;6.53;5.47;;;;;;;18.59;56.92;96286.25;6307458;22;20003;-92
2021/09/04 10:42:22;;;;;;;7.75;6.00;;;;;;;18.76;57.14;96288.88;6307346;22;20029;-92
2021/09/04 10:44:50;;;;;;;8.80;5.93;;;;;;;18.83;56.01;96280.03;6309298;22;20003;-92
2021/09/04 10:47:17;;;;;;;6.50;5.68;;;;;;;18.96;56.49;96275.91;6307656;22;20006;-91
2021/09/04 10:49:48;;;;;;;6.38;5.18;;;;;;;19.22;56.85;96284.41;6307629;22;20045;-92
2021/09/04 10:52:14;;;;;;;5.72;5.13;;;;;;;19.41;57.36;96276.19;6307139;22;20003;-92
2021/09/04 10:54:58;;;;;;;5.43;4.72;;;;;;;19.54;56.02;96259.75;6307455;22;20424;-92
2021/09/04 10:57:24;;;;;;;7.25;5.53;;;;;;;19.68;57.77;96255.09;6307734;22;20003;-91
2021/09/04 11:00:01;;;;;;;5.93;5.07;;;;;;;19.99;54.62;96280.50;6307457;22;20007;-92
2021/09/04 11:02:40;;;;;;;5.28;4.78;;;;;;;20.18;54.75;96275.69;6307336;22;19999;-92
2021/09/04 11:05:24;;;;;;;6.03;4.70;;;;;;;20.31;53.10;96278.53;6307353;22;20039;-92
2021/09/04 11:08:02;;;;;;;5.63;4.93;;;;;;;20.34;52.65;96273.97;6307250;22;20332;-92
2021/09/04 11:10:29;;;;;;;9.43;5.30;;;;;;;20.34;51.74;96271.19;6307324;22;20035;-91
2021/09/04 11:13:35;;;;;;;7.35;5.53;;;;;;;20.47;50.44;96292.59;6307168;22;20003;-91
2021/09/04 11:16:38;;;;;;;6.63;5.00;;;;;;;20.66;51.65;96288.50;6281265;22;20357;-92
2021/09/04 11:19:14;;;;;;;5.95;5.05;;;;;;;20.78;51.18;96291.84;6261039;22;20007;-93
2021/09/04 11:22:20;;;;;;;5.70;5.10;;;;;;;20.90;49.00;96292.41;6307136;22;20010;-91
2021/09/04 11:24:49;;;;;;;6.88;5.32;;;;;;;21.10;52.53;96293.81;6214353;23;20004;-91
2021/09/04 11:27:52;;;;;;;6.30;5.30;;;;;;;21.26;51.61;96283.72;6214218;23;20012;-92
2021/09/04 11:30:20;;;;;;;5.75;5.15;;;;;;;21.08;50.35;96263.22;6228330;22;20095;-92
2021/09/04 11:32:45;;;;;;;5.80;5.05;;;;;;;21.36;49.32;96265.47;6250506;22;20000;-92